SPCL/PCL METAR and TAF weather

Enter ICAO airport designator
Station Type Date Time Source
SPCL METAR 2019/05/25 10:00 UTC NOAA

SPCL 251000Z 14010KT 8000 BKN013 BKN070 23/22 Q1013 RMK BCFG PP000


Station Type Date Time Source
SPCL Decoded METAR 2019/05/25 10:00 UTC NOAA

Pucallpa, Peru (SPCL) 08-25S 074-36W 149M
May 25, 2019 - 06:00 AM EDT / 2019.05.25 1000 UTC
Wind: from the SE (140 degrees) at 12 MPH (10 KT):0
Visibility: 4 mile(s):0
Sky conditions: mostly cloudy
Temperature: 73 F (23 C)
Dew Point: 71 F (22 C)
Relative Humidity: 94%
Pressure (altimeter): 29.91 in. Hg (1013 hPa)
ob: SPCL 251000Z 14010KT 8000 BKN013 BKN070 23/22 Q1013 RMK BCFG PP000
cycle: 10

Station Type Date Time Source
SPCL TAF 2019/05/25 06:33 UTC NOAA

TAF SPCL 250500Z 2506/2606 14005KT 9999 BKN015 BKN090 TX32/2520Z TN24/2511Z
TEMPO 2510/2512 00000KT 7000 BKN015
BECMG 2516/2518 02003KT BKN020 SCT080

Example: see airport list